Time,TemperatureF,DewpointF,PressureIn,WindDirection,WindDirectionDegrees,WindSpeedMPH,WindSpeedGustMPH,Humidity,HourlyPrecipIn,Conditions,Clouds,dailyrainin,SolarRadiationWatts/m^2,SoftwareType,DateUTC
2013-06-12 00:00:00,71.0,69.0,27.93,ESE,109,0.0,-999.0,94,-99.99,,,-99.99,0.030000,,2013-06-12 05:00:00,
2013-06-12 00:52:00,71.0,69.0,27.93,ESE,109,0.0,-999.0,94,-99.99,,,-99.99,0.030000,,2013-06-12 05:52:00,
2013-06-12 03:00:00,70.0,68.0,27.87,ENE,67,1.0,-999.0,96,-99.99,,,-99.99,0.030000,,2013-06-12 08:00:00,
2013-06-12 04:00:00,69.0,68.0,27.79,ENE,67,0.0,-999.0,96,-99.99,,,-99.99,0.020000,,2013-06-12 09:00:00,
2013-06-12 04:53:00,69.0,68.0,27.79,ENE,67,0.0,-999.0,96,-99.99,,,-99.99,0.020000,,2013-06-12 09:53:00,
2013-06-12 05:00:00,68.0,67.0,27.83,ENE,66,0.0,-999.0,95,-99.99,,,-99.99,0.020000,,2013-06-12 10:00:00,
2013-06-12 05:53:00,68.0,67.0,27.83,ENE,66,0.0,-999.0,95,-99.99,,,-99.99,0.020000,,2013-06-12 10:53:00,
2013-06-12 06:00:00,68.0,67.0,27.93,NNE,29,1.0,-999.0,96,-99.99,,,-99.99,6.010000,,2013-06-12 11:00:00,
2013-06-12 07:00:00,74.0,72.0,27.84,ENE,78,0.0,-999.0,91,-99.99,,,-99.99,83.000000,,2013-06-12 12:00:00,
2013-06-12 08:00:00,79.0,72.0,28.06,SW,225,2.0,-999.0,80,-99.99,,,-99.99,249.300003,,2013-06-12 13:00:00,
2013-06-12 08:53:00,79.0,72.0,28.06,SW,225,2.0,-999.0,80,-99.99,,,-99.99,249.300003,,2013-06-12 13:53:00,
2013-06-12 09:00:00,83.0,72.0,27.94,SW,233,4.0,-999.0,71,-99.99,,,-99.99,440.899994,,2013-06-12 14:00:00,
2013-06-12 10:00:00,85.0,73.0,28.42,WNW,287,3.0,-999.0,68,-99.99,,,-99.99,578.299988,,2013-06-12 15:00:00,
2013-06-12 11:00:00,87.0,72.0,28.18,WSW,257,3.0,-999.0,61,-99.99,,,-99.99,658.099976,,2013-06-12 16:00:00,
2013-06-12 12:00:00,88.0,72.0,28.11,West,268,4.0,-999.0,59,-99.99,,,-99.99,854.000000,,2013-06-12 17:00:00,
2013-06-12 13:00:00,90.0,71.0,28.05,WSW,251,4.0,-999.0,54,-99.99,,,-99.99,902.000000,,2013-06-12 18:00:00,
2013-06-12 14:00:00,91.0,71.0,28.37,SW,221,4.0,-999.0,52,-99.99,,,-99.99,902.000000,,2013-06-12 19:00:00,
2013-06-12 15:00:00,91.0,71.0,28.14,SSW,206,5.0,-999.0,52,-99.99,,,-99.99,821.000000,,2013-06-12 20:00:00,
2013-06-12 16:00:00,90.0,70.0,27.79,SW,215,7.0,-999.0,51,-99.99,,,-99.99,704.000000,,2013-06-12 21:00:00,
2013-06-12 17:00:00,90.0,67.0,27.76,SW,226,7.0,-999.0,46,-99.99,,,-99.99,554.200012,,2013-06-12 22:00:00,
2013-06-12 17:52:00,90.0,67.0,27.76,SW,226,7.0,-999.0,46,-99.99,,,-99.99,554.200012,,2013-06-12 22:52:00,
2013-06-12 18:00:00,90.0,67.0,27.81,WSW,255,4.0,-999.0,47,-99.99,,,-99.99,391.899994,,2013-06-12 23:00:00,
2013-06-12 18:53:00,90.0,67.0,27.81,WSW,255,4.0,-999.0,47,-99.99,,,-99.99,391.899994,,2013-06-12 23:53:00,
2013-06-12 19:00:00,86.0,75.0,27.87,WSW,237,3.0,-999.0,69,-99.99,,,-99.99,208.300003,,2013-06-13 00:00:00,
2013-06-12 19:52:00,86.0,75.0,27.87,WSW,237,3.0,-999.0,69,-99.99,,,-99.99,208.300003,,2013-06-13 00:52:00,
2013-06-12 20:00:00,79.0,74.0,27.60,SSE,165,1.0,-999.0,84,-99.99,,,-99.99,44.930000,,2013-06-13 01:00:00,
2013-06-12 21:00:00,75.0,72.0,27.59,NE,53,0.0,-999.0,90,-99.99,,,-99.99,0.410000,,2013-06-13 02:00:00,
2013-06-12 21:52:00,75.0,72.0,27.59,NE,53,0.0,-999.0,90,-99.99,,,-99.99,0.410000,,2013-06-13 02:52:00,
2013-06-12 22:52:00,73.0,70.0,27.66,SE,128,0.0,-999.0,92,-99.99,,,-99.99,0.000000,,2013-06-13 03:52:00,
2013-06-12 23:00:00,72.0,70.0,27.67,North,6,0.0,-999.0,92,-99.99,,,-99.99,0.000000,,2013-06-13 04:00:00,